Boreal Solo Sailor — FGG4016 — position and weather

sailwx.info

Track history (hours):
 
Tides and Currents Weather Stations Pressure Air Temp Water Temp Dewpoint Dewpoint Depression Visibility Wind Speed Wind Dir Waves Ship Positions

Boreal Solo Sailor

Last reported at 2018-Jun-17 06:39 UTC. Time now 2018-Jun-22 07:43 UTC.
Position N 48°07' W 004°21'.

Length 7 m.

Type: Sailing vessel. MMSI: 227798290.

Date/timePositionNaut miles runAvg speedWind from/ knotsBaromVisibWave heightAir tempDewpointWater temp
2018-Jun-17 06:39N 48°07' W 004°21'4 5.8
2018-Jun-17 05:58N 48°08' W 004°27'5 7.1
2018-Jun-17 05:19N 48°08' W 004°34'2 5.4
2018-Jun-17 04:58N 48°09' W 004°36'3 6.6
2018-Jun-17 04:30N 48°11' W 004°40'3 5.8
2018-Jun-17 04:01N 48°12' W 004°43'3 5.8
2018-Jun-17 03:29N 48°14' W 004°47'3 5.5
2018-Jun-17 03:00N 48°15' W 004°51'5 4.5
2018-Jun-17 01:58N 48°17' W 004°57'6 4.6
2018-Jun-17 00:38N 48°21' W 005°04'3 4.8
2018-Jun-16 23:58N 48°23' W 005°08'  
Track history (hours):
 
Tides and Currents Weather Stations Pressure Air Temp Water Temp Dewpoint Dewpoint Depression Visibility Wind Speed Wind Dir Waves Ship Positions

Boreal Solo Sailor

Last reported at 2018-Jun-17 06:39 UTC. Time now 2018-Jun-22 07:43 UTC.
Position N 48°07' W 004°21'.

Length 7 m.

Type: Sailing vessel. MMSI: 227798290.

Date/timePositionNaut miles runAvg speedWind from/ knotsBaromVisibWave heightAir tempDewpointWater temp
2018-Jun-17 06:39N 48°07' W 004°21'4 5.8
2018-Jun-17 05:58N 48°08' W 004°27'5 7.1
2018-Jun-17 05:19N 48°08' W 004°34'2 5.4
2018-Jun-17 04:58N 48°09' W 004°36'3 6.6
2018-Jun-17 04:30N 48°11' W 004°40'3 5.8
2018-Jun-17 04:01N 48°12' W 004°43'3 5.8
2018-Jun-17 03:29N 48°14' W 004°47'3 5.5
2018-Jun-17 03:00N 48°15' W 004°51'5 4.5
2018-Jun-17 01:58N 48°17' W 004°57'6 4.6
2018-Jun-17 00:38N 48°21' W 005°04'3 4.8
2018-Jun-16 23:58N 48°23' W 005°08'  

Dump ship's entire track history